Have a Safe July 4th! 

Flight Track Log - Related Links

Times and Time Zones

All times are in EDT time to prevent confusion due to time zone crossing. See the TRS1795 flight status page for this flight to view local times or setup timezone preferences in your user account.

Time Position Orientation Groundspeed Altitude Reporting Facility
EDT Latitude Longitude Course Direction KTS MPH feet Rate Location/Type
Tue 09:24:45 AM 42.9333 -87.9167 224° Southwest 161 185 1,100  Level KMKE
Tue 09:26:20 AM 42.8883 -87.9756 118° Southeast 214 246 5,500 2,748 Climbing Chicago Center
Tue 09:27:20 AM 42.8539 -87.8856 118° Southeast 289 333 8,200 3,150 Climbing Chicago Center
Tue 09:28:20 AM 42.8128 -87.7792 168° South 307 353 11,800 3,650 Climbing Chicago Center
Tue 09:29:20 AM 42.7333 -87.7556 173° South 308 354 15,500 3,350 Climbing Chicago Center
Tue 09:30:20 AM 42.6478 -87.7408 165° South 319 367 18,500 2,450 Climbing Chicago Center
Tue 09:31:20 AM 42.5472 -87.7039 163° South 324 373 20,400 2,200 Climbing Chicago Center
Tue 09:32:20 AM 42.4422 -87.6617 162° South 359 413 22,900 2,500 Climbing Chicago Center
Tue 09:33:20 AM 42.3331 -87.6142 163° South 392 451 25,400 2,550 Climbing Chicago Center
Tue 09:34:20 AM 42.2242 -87.5694 162° South 407 468 28,000 1,800 Climbing Chicago Center
Tue 09:35:20 AM 42.1169 -87.5219 159° South 407 468 29,000 500 Climbing Chicago Center
Tue 09:36:20 AM 42.0119 -87.4664 114° Southeast 402 463 29,000  Level Chicago Center
Tue 09:37:20 AM 41.9614 -87.3142 97° East 507 583 29,000  Level Chicago Center
Tue 09:38:20 AM 41.9456 -87.1417 93° East 491 565 29,000 -250 Level Chicago Center
Tue 09:39:20 AM 41.9381 -86.9744 89° East 465 535 28,500  Descending Chicago Center
Tue 09:40:20 AM 41.9408 -86.8067 88° East 453 521 29,000 250 Climbing Chicago Center
Tue 09:41:20 AM 41.9453 -86.6364 89° East 453 521 29,000  Level Chicago Center
Tue 09:42:20 AM 41.9472 -86.4658 89° East 453 521 29,000  Level Chicago Center
Tue 09:43:20 AM 41.9492 -86.2953 88° East 453 521 29,000  Level Chicago Center
Tue 09:44:20 AM 41.9528 -86.1250 87° East 458 527 29,000  Level Chicago Center
Tue 09:45:20 AM 41.9583 -85.9569 90° East 458 527 29,000  Level Chicago Center
Tue 09:46:20 AM 41.9572 -85.7839 91° East 458 527 29,000  Level Chicago Center
Tue 09:47:20 AM 41.9544 -85.6306 91° East 458 527 29,000  Level Chicago Center
Tue 09:48:20 AM 41.9531 -85.4631 104° East 458 527 29,000  Level Chicago Center
Tue 09:49:26 AM 41.9164 -85.2664 112° Southeast 456 525 29,000  Level Cleveland Center
Tue 09:50:26 AM 41.8706 -85.1122 111° Southeast 449 517 29,000 -500 Level Cleveland Center
Tue 09:53:26 AM 41.7378 -84.6436 112° Southeast 435 501 27,000 -311 Descending Cleveland Center
Tue 09:59:26 AM 41.4700 -83.7508 124° Southeast 430 495 26,200 -517 Descending Cleveland Center
Tue 10:04:27 AM 41.1558 -83.1397 125° Southeast 405 466 21,300 -981 Descending Cleveland Center
Tue 10:05:27 AM 41.0939 -83.0214 124° Southeast 400 460 20,300 -1,000 Descending Cleveland Center
Tue 10:06:27 AM 41.0317 -82.9008 125° Southeast 400 460 19,300 -650 Descending Cleveland Center
Tue 10:07:27 AM 40.9653 -82.7775 125° Southeast 388 447 19,000 -250 Descending Cleveland Center
Tue 10:08:27 AM 40.9050 -82.6628 115° Southeast 388 447 18,800 -1,450 Descending Cleveland Center
Tue 10:09:27 AM 40.8592 -82.5350 97° East 388 447 16,100 -2,500 Descending Cleveland Center
Tue 10:10:27 AM 40.8450 -82.3919 98° East 380 437 13,800 -2,150 Descending Cleveland Center
Tue 10:11:27 AM 40.8303 -82.2569 97° East 375 432 11,800 -1,800 Descending Cleveland Center
Tue 10:12:27 AM 40.8175 -82.1278 97° East 370 426 10,200 -1,250 Descending Cleveland Center
Tue 10:13:27 AM 40.8067 -82.0122 98° East 337 388 9,300 -1,000 Descending Cleveland Center
Tue 10:14:27 AM 40.7953 -81.9022 98° East 308 354 8,200 -1,250 Descending Cleveland Center
Tue 10:15:27 AM 40.7842 -81.7978 98° East 291 335 6,800 -1,350 Descending Cleveland Center
Tue 10:16:27 AM 40.7725 -81.6936 97° East 285 328 5,500 -900 Descending Cleveland Center
Tue 10:17:27 AM 40.7631 -81.5919 97° East 285 328 5,000 -250 Descending Cleveland Center
Tue 10:18:27 AM 40.7536 -81.4958 56° Northeast 275 316 5,000  Level Cleveland Center
Tue 10:19:27 AM 40.7958 -81.4142 43° Northeast 248 285 5,000  Level Cleveland Center
Tue 10:20:27 AM 40.8442 -81.3544 45° Northeast 267 307 5,000  Level Cleveland Center
Tue 10:21:27 AM 40.8989 -81.2808 43° Northeast 267 307 5,000  Level Cleveland Center
Tue 10:22:27 AM 40.9533 -81.2128 250° West 272 313 5,000  Level Cleveland Center
Tue 10:29:32 AM 40.6658 -82.2399 250° West  Level FlightAware Approximate

Login

Don't have an account? Register now (free) for customized features, flight alerts, and more!